createdAt,value
2017-11-12T00:00:09.397Z,16.73
2017-11-12T00:02:37.804Z,17.47
2017-11-12T00:05:06.223Z,16.10
2017-11-12T00:07:35.897Z,14.07
2017-11-12T00:10:04.387Z,14.23
2017-11-12T00:12:32.795Z,14.13
2017-11-12T00:15:01.988Z,13.33
2017-11-12T00:17:31.184Z,12.73
2017-11-12T00:20:00.385Z,14.33
2017-11-12T00:22:30.090Z,14.07
2017-11-12T00:24:59.257Z,13.40
2017-11-12T00:27:27.661Z,14.67
2017-11-12T00:29:56.096Z,13.87
2017-11-12T00:32:24.479Z,14.77
2017-11-12T00:34:52.922Z,16.53
2017-11-12T00:37:22.317Z,16.50
2017-11-12T00:39:51.488Z,16.20
2017-11-12T00:42:19.960Z,14.13
2017-11-12T00:44:48.475Z,16.47
2017-11-12T00:47:17.964Z,14.57
2017-11-12T00:49:46.360Z,13.30
2017-11-12T00:52:15.556Z,17.60
2017-11-12T00:54:44.720Z,15.67
2017-11-12T00:57:13.135Z,18.00
2017-11-12T00:59:42.880Z,17.07
2017-11-12T01:02:11.304Z,14.13
2017-11-12T01:04:39.783Z,15.67
2017-11-12T01:07:08.249Z,19.50
2017-11-12T01:09:36.893Z,18.57
2017-11-12T01:12:05.322Z,20.90
2017-11-12T01:14:33.904Z,20.67
2017-11-12T01:17:02.337Z,21.43
2017-11-12T01:19:30.723Z,18.80
2017-11-12T01:21:59.365Z,18.87
2017-11-12T01:24:28.533Z,20.50
2017-11-12T01:26:56.924Z,17.40
2017-11-12T01:29:25.354Z,18.27
2017-11-12T01:31:53.767Z,17.03
2017-11-12T01:34:22.160Z,19.03
2017-11-12T01:36:50.965Z,20.77
2017-11-12T01:39:19.354Z,17.60
2017-11-12T01:41:48.522Z,17.33
2017-11-12T01:44:16.985Z,17.47
2017-11-12T01:46:45.418Z,17.77
2017-11-12T01:49:14.600Z,18.20
2017-11-12T01:51:43.200Z,17.50
2017-11-12T01:54:12.362Z,20.00
2017-11-12T01:56:40.793Z,19.40
2017-11-12T01:59:09.447Z,18.33
2017-11-12T02:01:38.271Z,19.00
2017-11-12T02:04:06.695Z,17.93
2017-11-12T02:06:35.150Z,18.83
2017-11-12T02:09:03.676Z,21.30
2017-11-12T02:11:33.004Z,21.67
2017-11-12T02:14:01.658Z,20.70
2017-11-12T02:16:30.092Z,19.23
2017-11-12T02:18:58.495Z,19.57
2017-11-12T02:21:27.307Z,20.60
2017-11-12T02:23:55.873Z,18.00
2017-11-12T02:26:24.508Z,17.97
2017-11-12T02:28:53.382Z,18.40
2017-11-12T02:31:22.601Z,19.10
2017-11-12T02:33:51.045Z,18.73
2017-11-12T02:36:19.566Z,19.60
2017-11-12T02:38:48.058Z,19.80
2017-11-12T02:41:16.537Z,20.80
2017-11-12T02:43:45.020Z,21.37
2017-11-12T02:46:13.487Z,18.13
2017-11-12T02:48:41.948Z,16.07
2017-11-12T02:51:11.864Z,19.43
2017-11-12T02:53:41.067Z,18.90
2017-11-12T02:56:10.322Z,21.60
2017-11-12T02:58:39.139Z,17.83
2017-11-12T03:01:08.361Z,20.00
2017-11-12T03:03:36.763Z,16.90
2017-11-12T03:06:05.289Z,19.27
2017-11-12T03:08:34.301Z,19.27
2017-11-12T03:11:03.583Z,19.20
2017-11-12T03:13:32.789Z,21.07
2017-11-12T03:16:02.002Z,24.93
2017-11-12T03:18:31.173Z,21.70
2017-11-12T03:20:59.960Z,21.00
2017-11-12T03:23:28.375Z,19.00
2017-11-12T03:25:56.804Z,20.97
2017-11-12T03:28:25.365Z,19.30
2017-11-12T03:30:53.789Z,21.07
2017-11-12T03:33:22.233Z,23.33
2017-11-12T03:35:50.720Z,23.10
2017-11-12T03:38:19.140Z,21.40
2017-11-12T03:43:23.029Z,18.17
2017-11-12T03:45:51.451Z,16.50
2017-11-12T03:48:20.675Z,13.87
2017-11-12T03:50:49.218Z,12.50
2017-11-12T03:53:18.430Z,19.97
2017-11-12T03:55:47.628Z,24.90
2017-11-12T03:58:16.101Z,24.67
2017-11-12T04:00:45.306Z,10.73
2017-11-12T04:03:14.015Z,36.63
2017-11-12T04:05:42.465Z,27.80
2017-11-12T04:08:11.644Z,28.03
2017-11-12T04:10:40.092Z,32.87
2017-11-12T04:13:08.661Z,36.67
2017-11-12T04:15:37.211Z,38.93
2017-11-12T04:18:05.538Z,25.20
2017-11-12T04:20:33.998Z,37.97
2017-11-12T04:23:02.407Z,39.73
2017-11-12T04:25:30.829Z,41.00
2017-11-12T04:28:00.733Z,28.60
2017-11-12T04:30:29.893Z,27.40
2017-11-12T04:32:58.272Z,23.23
2017-11-12T04:35:26.850Z,23.83
2017-11-12T04:37:55.309Z,49.60
2017-11-12T04:40:23.858Z,25.83
2017-11-12T04:42:53.117Z,28.13
2017-11-12T04:45:21.547Z,42.93
2017-11-12T04:47:50.749Z,22.83
2017-11-12T04:50:19.197Z,25.40
2017-11-12T04:52:47.727Z,24.27
2017-11-12T04:55:16.156Z,20.53
2017-11-12T04:57:44.967Z,24.10
2017-11-12T05:00:14.252Z,14.60
2017-11-12T05:02:42.676Z,16.23
2017-11-12T05:05:11.713Z,22.00
2017-11-12T05:07:40.253Z,41.23
2017-11-12T05:10:08.669Z,23.80
2017-11-12T05:12:37.386Z,24.63
2017-11-12T05:15:06.575Z,15.20
2017-11-12T05:17:36.353Z,17.63
2017-11-12T05:20:05.170Z,33.53
2017-11-12T05:22:33.585Z,25.73
2017-11-12T05:25:02.020Z,28.40
2017-11-12T05:27:30.851Z,37.03
2017-11-12T05:29:59.267Z,65.00
2017-11-12T05:32:27.676Z,33.53
2017-11-12T05:34:56.739Z,27.77
2017-11-12T05:37:25.143Z,26.80
2017-11-12T05:39:53.548Z,32.80
2017-11-12T05:42:23.252Z,27.80
2017-11-12T05:44:51.691Z,29.60
2017-11-12T05:47:20.086Z,30.47
2017-11-12T05:49:48.505Z,33.10
2017-11-12T05:52:16.992Z,31.27
2017-11-12T05:54:45.434Z,35.03
2017-11-12T05:57:13.971Z,32.93
2017-11-12T05:59:42.401Z,29.83
2017-11-12T06:02:10.811Z,28.30
2017-11-12T06:04:39.247Z,29.73
2017-11-12T06:07:07.712Z,22.87
2017-11-12T06:09:36.201Z,29.87
2017-11-12T06:12:04.733Z,29.67
2017-11-12T06:14:33.209Z,28.83
2017-11-12T06:17:02.413Z,31.10
2017-11-12T06:19:31.467Z,30.20
2017-11-12T06:21:59.900Z,23.40
2017-11-12T06:24:28.334Z,25.40
2017-11-12T06:26:56.886Z,28.00
2017-11-12T06:29:26.111Z,30.23
2017-11-12T06:31:54.589Z,31.13
2017-11-12T06:34:23.356Z,29.17
2017-11-12T06:36:51.761Z,22.30
2017-11-12T06:39:20.174Z,26.70
2017-11-12T06:41:49.662Z,29.27
2017-11-12T06:44:18.850Z,25.60
2017-11-12T06:46:47.249Z,22.57
2017-11-12T06:49:16.656Z,19.77
2017-11-12T06:51:45.805Z,14.30
2017-11-12T06:54:14.215Z,27.70
2017-11-12T06:56:43.208Z,26.67
2017-11-12T06:59:12.377Z,20.80
2017-11-12T07:01:40.796Z,26.87
2017-11-12T07:04:09.993Z,20.97
2017-11-12T07:06:39.149Z,23.63
2017-11-12T07:09:07.574Z,23.03
2017-11-12T07:11:36.775Z,17.27
2017-11-12T07:14:05.185Z,19.00
2017-11-12T07:16:33.639Z,22.70
2017-11-12T07:19:02.136Z,27.60
2017-11-12T07:21:31.003Z,29.07
2017-11-12T07:23:59.411Z,27.17
2017-11-12T07:26:27.857Z,27.87
2017-11-12T07:28:56.271Z,29.47
2017-11-12T07:31:24.683Z,29.03
2017-11-12T07:33:53.211Z,29.77
2017-11-12T07:36:21.642Z,29.17
2017-11-12T07:38:50.058Z,29.30
2017-11-12T07:41:19.664Z,33.40
2017-11-12T07:43:48.852Z,33.57
2017-11-12T07:46:18.108Z,30.90
2017-11-12T07:48:46.741Z,30.07
2017-11-12T07:51:15.902Z,29.90
2017-11-12T07:53:44.313Z,29.83
2017-11-12T07:56:13.678Z,31.10
2017-11-12T07:58:42.124Z,30.77
2017-11-12T08:01:10.525Z,32.07
2017-11-12T08:03:39.015Z,34.60
2017-11-12T08:06:07.446Z,28.83
2017-11-12T08:08:36.648Z,31.90
2017-11-12T08:11:05.481Z,26.47
2017-11-12T08:13:33.920Z,27.00
2017-11-12T08:16:03.079Z,28.97
2017-11-12T08:18:31.692Z,26.00
2017-11-12T08:21:00.869Z,29.10
2017-11-12T08:23:29.520Z,28.73
2017-11-12T08:25:58.010Z,29.87
2017-11-12T08:28:27.216Z,28.87
2017-11-12T08:30:55.636Z,32.47
2017-11-12T08:33:24.171Z,31.23
2017-11-12T08:35:52.915Z,29.37
2017-11-12T08:38:21.388Z,25.90
2017-11-12T08:40:49.992Z,24.50
2017-11-12T08:43:18.421Z,24.93
2017-11-12T08:45:46.851Z,18.40
2017-11-12T08:48:15.366Z,21.67
2017-11-12T08:50:43.853Z,25.30
2017-11-12T08:53:12.449Z,26.80
2017-11-12T08:55:41.439Z,28.60
2017-11-12T08:58:09.878Z,28.53
2017-11-12T09:00:38.532Z,26.50
2017-11-12T09:03:08.054Z,28.77
2017-11-12T09:05:36.494Z,31.43
2017-11-12T09:08:04.908Z,24.87
2017-11-12T09:10:33.478Z,25.23
2017-11-12T09:13:02.808Z,25.50
2017-11-12T09:15:31.224Z,24.70
2017-11-12T09:17:59.693Z,24.87
2017-11-12T09:20:28.105Z,24.80
2017-11-12T09:22:56.519Z,27.30
2017-11-12T09:25:25.462Z,27.67
2017-11-12T09:27:53.881Z,26.67
2017-11-12T09:30:22.322Z,26.90
2017-11-12T09:32:50.803Z,24.10
2017-11-12T09:35:19.246Z,25.20
2017-11-12T09:37:47.677Z,20.10
2017-11-12T09:40:16.407Z,18.10
2017-11-12T09:42:44.827Z,23.23
2017-11-12T09:45:13.253Z,21.97
2017-11-12T09:47:42.669Z,25.70
2017-11-12T09:50:11.182Z,25.00
2017-11-12T09:52:39.572Z,24.43
2017-11-12T09:55:08.138Z,23.20
2017-11-12T09:57:36.533Z,20.40
2017-11-12T10:00:05.008Z,22.37
2017-11-12T10:02:33.737Z,26.47
2017-11-12T10:05:02.896Z,21.40
2017-11-12T10:07:31.281Z,17.60
2017-11-12T10:09:59.754Z,19.03
2017-11-12T10:12:28.162Z,21.73
2017-11-12T10:14:57.532Z,16.20
2017-11-12T10:17:25.982Z,8.83
2017-11-12T10:19:54.378Z,17.53
2017-11-12T10:22:22.775Z,14.60
2017-11-12T10:24:51.345Z,6.30
2017-11-12T10:27:20.279Z,9.87
2017-11-12T10:29:49.457Z,12.37
2017-11-12T10:32:17.899Z,7.00
2017-11-12T10:34:46.448Z,13.07
2017-11-12T10:37:15.604Z,10.90
2017-11-12T10:39:45.616Z,7.20
2017-11-12T10:42:14.034Z,6.87
2017-11-12T10:44:42.462Z,6.13
2017-11-12T10:47:11.623Z,5.67
2017-11-12T10:49:40.027Z,3.00
2017-11-12T10:52:08.617Z,2.73
2017-11-12T10:54:37.249Z,4.80
2017-11-12T10:57:05.646Z,2.63
2017-11-12T10:59:34.839Z,3.30
2017-11-12T11:02:04.184Z,1.07
2017-11-12T11:04:32.628Z,3.63
2017-11-12T11:07:01.028Z,1.70
2017-11-12T11:09:29.786Z,4.57
2017-11-12T11:11:59.002Z,4.27
2017-11-12T11:14:27.572Z,3.90
2017-11-12T11:16:56.936Z,4.53
2017-11-12T11:19:25.438Z,3.87
2017-11-12T11:21:53.826Z,3.70
2017-11-12T11:24:23.435Z,4.10
2017-11-12T11:26:52.581Z,4.30
2017-11-12T11:29:21.377Z,4.60
2017-11-12T11:31:50.198Z,4.13
2017-11-12T11:34:19.357Z,4.43
2017-11-12T11:36:47.733Z,5.50
2017-11-12T11:39:16.525Z,5.97
2017-11-12T11:41:44.956Z,3.30
2017-11-12T11:44:14.109Z,3.60
2017-11-12T11:46:43.356Z,3.47
2017-11-12T11:49:12.521Z,5.00
2017-11-12T11:51:41.383Z,3.83
2017-11-12T11:54:10.282Z,4.73
2017-11-12T11:56:38.846Z,5.60
2017-11-12T11:59:07.288Z,5.73
2017-11-12T12:01:35.845Z,6.10
2017-11-12T12:04:04.268Z,6.40
2017-11-12T12:06:32.729Z,7.77
2017-11-12T12:09:01.930Z,6.40
2017-11-12T12:11:31.093Z,7.63
2017-11-12T12:13:59.556Z,6.03
2017-11-12T12:16:28.293Z,4.80
2017-11-12T12:18:57.548Z,5.60
2017-11-12T12:21:26.009Z,4.93
2017-11-12T12:23:54.457Z,6.40
2017-11-12T12:26:23.607Z,6.60
2017-11-12T12:28:51.994Z,7.90
2017-11-12T12:31:20.717Z,7.60
2017-11-12T12:33:49.879Z,7.07
2017-11-12T12:36:18.292Z,6.73
2017-11-12T12:38:46.778Z,4.60
2017-11-12T12:41:15.939Z,5.90
2017-11-12T12:43:44.576Z,7.00
2017-11-12T12:46:13.178Z,7.03
2017-11-12T12:48:41.583Z,6.90
2017-11-12T12:51:09.978Z,7.73
2017-11-12T12:53:38.439Z,7.97
2017-11-12T12:56:06.875Z,8.00
2017-11-12T12:58:35.286Z,8.07
2017-11-12T13:01:03.845Z,7.80
2017-11-12T13:03:32.265Z,7.70
2017-11-12T13:06:00.713Z,8.63
2017-11-12T13:08:29.233Z,7.70
2017-11-12T13:10:57.624Z,7.83
2017-11-12T13:13:26.031Z,7.43
2017-11-12T13:15:55.433Z,6.80
2017-11-12T13:18:24.929Z,7.90
2017-11-12T13:20:54.308Z,7.80
2017-11-12T13:23:22.929Z,7.53
2017-11-12T13:25:51.406Z,8.50
2017-11-12T13:28:19.818Z,7.93
2017-11-12T13:30:48.310Z,8.77
2017-11-12T13:33:17.374Z,7.70
2017-11-12T13:35:45.829Z,7.50
2017-11-12T13:38:15.090Z,8.80
2017-11-12T13:40:44.302Z,8.70
2017-11-12T13:43:12.722Z,7.87
2017-11-12T13:45:42.309Z,7.70
2017-11-12T13:48:11.482Z,6.40
2017-11-12T13:50:39.929Z,7.33
2017-11-12T13:53:08.629Z,7.97
2017-11-12T13:55:37.012Z,7.50
2017-11-12T13:58:05.548Z,5.80
2017-11-12T14:00:34.843Z,6.40
2017-11-12T14:03:03.227Z,5.40
2017-11-12T14:05:32.417Z,5.60
2017-11-12T14:08:01.630Z,6.17
2017-11-12T14:10:30.148Z,6.93
2017-11-12T14:12:58.535Z,6.63
2017-11-12T14:15:27.002Z,6.93
2017-11-12T14:17:55.410Z,6.70
2017-11-12T14:20:23.834Z,7.13
2017-11-12T14:22:52.648Z,6.80
2017-11-12T14:25:21.093Z,6.47
2017-11-12T14:27:51.410Z,8.57
2017-11-12T14:30:20.353Z,7.73
2017-11-12T14:32:49.569Z,7.53
2017-11-12T14:35:19.608Z,7.30
2017-11-12T14:37:48.132Z,6.60
2017-11-12T14:40:16.584Z,7.33
2017-11-12T14:42:46.493Z,6.27
2017-11-12T14:45:15.187Z,6.23
2017-11-12T14:47:44.908Z,7.50
2017-11-12T14:50:15.246Z,7.17
2017-11-12T14:52:45.612Z,7.80
2017-11-12T14:55:14.064Z,7.60
2017-11-12T14:57:43.147Z,8.70
2017-11-12T15:00:11.655Z,7.67
2017-11-12T15:02:40.844Z,6.00
2017-11-12T15:05:09.248Z,4.67
2017-11-12T15:07:37.829Z,3.10
2017-11-12T15:10:06.279Z,3.80
2017-11-12T15:12:34.728Z,3.37
2017-11-12T15:15:04.142Z,3.80
2017-11-12T15:17:35.332Z,2.77
2017-11-12T15:20:03.752Z,3.27
2017-11-12T15:22:32.312Z,3.20
2017-11-12T15:25:00.719Z,3.20
2017-11-12T15:27:29.102Z,3.03
2017-11-12T15:29:57.645Z,2.40
2017-11-12T15:32:26.046Z,2.73
2017-11-12T15:34:55.201Z,2.00
2017-11-12T15:37:24.242Z,2.20
2017-11-12T15:39:52.658Z,3.07
2017-11-12T15:42:21.125Z,2.30
2017-11-12T15:44:49.543Z,2.57
2017-11-12T15:47:17.974Z,3.00
2017-11-12T15:49:46.429Z,3.10
2017-11-12T15:52:15.217Z,2.60
2017-11-12T15:54:43.628Z,2.60
2017-11-12T15:57:12.024Z,2.33
2017-11-12T15:59:40.606Z,3.00
2017-11-12T16:02:09.077Z,2.87
2017-11-12T16:04:37.496Z,3.00
2017-11-12T16:07:05.925Z,3.43
2017-11-12T16:09:34.333Z,2.53
2017-11-12T16:12:02.731Z,2.07
2017-11-12T16:14:31.605Z,3.40
2017-11-12T16:17:00.018Z,4.77
2017-11-12T16:19:28.453Z,2.60
2017-11-12T16:21:56.963Z,1.60
2017-11-12T16:24:25.378Z,3.10
2017-11-12T16:26:54.737Z,2.90
2017-11-12T16:29:23.553Z,2.37
2017-11-12T16:31:51.960Z,2.87
2017-11-12T16:34:20.375Z,2.90
2017-11-12T16:36:48.991Z,3.60
2017-11-12T16:39:17.696Z,3.00
2017-11-12T16:41:46.879Z,3.57
2017-11-12T16:44:17.630Z,3.63
2017-11-12T16:46:46.835Z,4.17
2017-11-12T16:49:16.074Z,4.73
2017-11-12T16:51:44.772Z,5.30
2017-11-12T16:54:13.226Z,5.27
2017-11-12T16:56:41.638Z,5.33
2017-11-12T16:59:10.170Z,5.97
2017-11-12T17:01:38.569Z,5.13
2017-11-12T17:04:07.024Z,5.53
2017-11-12T17:06:35.569Z,6.07
2017-11-12T17:09:04.048Z,6.47
2017-11-12T17:11:32.462Z,5.60
2017-11-12T17:14:01.651Z,6.63
2017-11-12T17:16:30.887Z,6.43
2017-11-12T17:18:59.279Z,5.90
2017-11-12T17:21:27.836Z,5.17
2017-11-12T17:23:56.269Z,5.90
2017-11-12T17:26:24.698Z,5.40
2017-11-12T17:28:53.338Z,6.23
2017-11-12T17:31:21.749Z,5.97
2017-11-12T17:33:50.140Z,6.23
2017-11-12T17:36:18.713Z,6.53
2017-11-12T17:38:47.100Z,6.93
2017-11-12T17:41:15.962Z,8.00
2017-11-12T17:43:45.160Z,8.77
2017-11-12T17:46:14.330Z,7.63
2017-11-12T17:48:42.753Z,7.50
2017-11-12T17:51:11.224Z,10.40
2017-11-12T17:53:40.416Z,10.47
2017-11-12T17:56:09.631Z,10.30
2017-11-12T17:58:38.050Z,11.63
2017-11-12T18:01:06.514Z,10.23
2017-11-12T18:03:34.984Z,12.93
2017-11-12T18:06:03.886Z,11.90
2017-11-12T18:08:32.268Z,10.70
2017-11-12T18:11:00.676Z,11.33
2017-11-12T18:13:29.230Z,10.27
2017-11-12T18:15:57.648Z,9.83
2017-11-12T18:18:26.082Z,10.10
2017-11-12T18:20:54.656Z,10.20
2017-11-12T18:23:23.107Z,10.27
2017-11-12T18:25:52.268Z,9.97
2017-11-12T18:28:20.771Z,9.10
2017-11-12T18:30:50.128Z,9.27
2017-11-12T18:33:18.515Z,9.37
2017-11-12T18:35:47.010Z,9.33
2017-11-12T18:38:15.464Z,7.87
2017-11-12T18:40:43.935Z,7.67
2017-11-12T18:43:12.735Z,8.50
2017-11-12T18:45:41.184Z,7.90
2017-11-12T18:48:10.420Z,8.30
2017-11-12T18:50:39.019Z,9.47
2017-11-12T18:53:08.511Z,6.00
2017-11-12T18:55:39.745Z,5.80
2017-11-12T18:58:26.047Z,7.17
2017-11-12T19:01:00.165Z,9.43
2017-11-12T19:03:34.425Z,6.70
2017-11-12T19:06:08.489Z,8.83
2017-11-12T19:08:37.041Z,10.70
2017-11-12T19:11:06.239Z,5.60
2017-11-12T19:13:35.427Z,10.03
2017-11-12T19:16:05.044Z,9.53
2017-11-12T19:18:35.808Z,6.90
2017-11-12T19:21:07.759Z,9.20
2017-11-12T19:23:36.227Z,7.83
2017-11-12T19:26:16.454Z,7.90
2017-11-12T19:28:48.642Z,7.53
2017-11-12T19:31:17.920Z,7.13
2017-11-12T19:33:46.355Z,9.47
2017-11-12T19:36:15.119Z,13.00
2017-11-12T19:38:44.327Z,9.90
2017-11-12T19:41:12.731Z,10.23
2017-11-12T19:43:41.236Z,8.43
2017-11-12T19:46:09.817Z,10.53
2017-11-12T19:48:38.306Z,10.53
2017-11-12T19:51:06.717Z,11.43
2017-11-12T19:53:35.209Z,10.80
2017-11-12T19:56:03.627Z,11.07
2017-11-12T19:58:32.058Z,11.63
2017-11-12T20:01:00.841Z,10.70
2017-11-12T20:03:29.247Z,12.10
2017-11-12T20:05:57.648Z,12.40
2017-11-12T20:08:26.599Z,10.30
2017-11-12T20:10:55.023Z,13.90
2017-11-12T20:13:23.563Z,12.97
2017-11-12T20:15:52.070Z,15.57
2017-11-12T20:18:20.501Z,12.20
2017-11-12T20:20:49.719Z,13.77
2017-11-12T20:23:18.958Z,13.70
2017-11-12T20:25:47.456Z,15.53
2017-11-12T20:28:15.871Z,11.57
2017-11-12T20:30:45.069Z,14.60
2017-11-12T20:33:14.320Z,12.20
2017-11-12T20:35:42.726Z,13.17
2017-11-12T20:38:12.013Z,13.90
2017-11-12T20:40:40.430Z,13.63
2017-11-12T20:43:09.658Z,15.40
2017-11-12T20:45:38.509Z,13.23
2017-11-12T20:48:07.718Z,10.70
2017-11-12T20:50:36.201Z,12.93
2017-11-12T20:53:04.947Z,15.03
2017-11-12T20:55:33.397Z,14.67
2017-11-12T20:58:01.902Z,16.23
2017-11-12T21:03:41.867Z,14.57
2017-11-12T21:06:10.345Z,13.20
2017-11-12T21:08:38.763Z,12.80
2017-11-12T21:11:08.133Z,12.77
2017-11-12T21:13:36.633Z,14.20
2017-11-12T21:16:05.052Z,11.90
2017-11-12T21:18:34.249Z,11.27
2017-11-12T21:21:06.605Z,11.90
2017-11-12T21:27:01.827Z,9.10
2017-11-12T21:29:31.785Z,10.80
2017-11-12T21:32:00.232Z,10.33
2017-11-12T21:34:30.695Z,8.10
2017-11-12T21:36:59.149Z,11.37
2017-11-12T21:39:27.929Z,12.40
2017-11-12T21:41:56.716Z,13.03
2017-11-12T21:44:25.914Z,12.67
2017-11-12T21:46:54.725Z,10.67
2017-11-12T21:49:23.245Z,9.77
2017-11-12T21:51:51.636Z,10.73
2017-11-12T21:54:20.036Z,12.07
2017-11-12T21:56:49.261Z,15.27
2017-11-12T21:59:17.708Z,15.37
2017-11-12T22:01:46.864Z,13.57
2017-11-12T22:04:15.339Z,15.63
2017-11-12T22:06:43.723Z,15.47
2017-11-12T22:09:12.131Z,10.97
2017-11-12T22:11:40.944Z,12.47
2017-11-12T22:14:12.678Z,12.00
2017-11-12T22:16:41.412Z,12.43
2017-11-12T22:19:09.846Z,14.43
2017-11-12T22:21:38.241Z,11.87
2017-11-12T22:24:07.849Z,11.57
2017-11-12T22:26:37.026Z,10.47
2017-11-12T22:29:05.417Z,11.63
2017-11-12T22:31:34.677Z,10.00
2017-11-12T22:34:03.080Z,11.93
2017-11-12T22:36:31.999Z,10.13
2017-11-12T22:39:00.649Z,9.53
2017-11-12T22:41:29.048Z,9.10
2017-11-12T22:43:57.452Z,11.50
2017-11-12T22:46:26.107Z,7.13
2017-11-12T22:48:54.728Z,9.90
2017-11-12T22:51:23.107Z,9.90
2017-11-12T22:53:51.549Z,8.83
2017-11-12T22:56:19.942Z,8.87
2017-11-12T22:58:48.362Z,9.63
2017-11-12T23:01:16.920Z,10.30
2017-11-12T23:03:45.310Z,10.47
2017-11-12T23:06:13.751Z,9.37
2017-11-12T23:08:42.336Z,11.93
2017-11-12T23:11:11.560Z,12.57
2017-11-12T23:13:40.077Z,12.93
2017-11-12T23:16:08.826Z,13.33
2017-11-12T23:18:37.224Z,13.10
2017-11-12T23:21:05.654Z,13.37
2017-11-12T23:26:09.732Z,13.93
2017-11-12T23:28:38.194Z,15.10
2017-11-12T23:31:07.361Z,16.77
2017-11-12T23:33:35.776Z,16.00
2017-11-12T23:36:04.529Z,15.70
2017-11-12T23:38:33.044Z,15.50
2017-11-12T23:41:02.207Z,17.00
2017-11-12T23:43:30.723Z,15.00
2017-11-12T23:45:59.157Z,14.97
2017-11-12T23:48:27.574Z,16.77
2017-11-12T23:50:57.089Z,15.50
2017-11-12T23:53:25.482Z,15.57
2017-11-12T23:55:53.906Z,15.33
2017-11-12T23:58:22.519Z,17.43
